createdAt,value
2023-08-25T00:01:28.553Z,10.96
2023-08-25T00:04:01.567Z,10.96
2023-08-25T00:06:38.446Z,10.92
2023-08-25T00:09:07.989Z,10.88
2023-08-25T00:11:37.471Z,10.81
2023-08-25T00:14:12.957Z,10.81
2023-08-25T00:16:43.572Z,10.73
2023-08-25T00:22:00.223Z,10.63
2023-08-25T00:24:29.824Z,10.52
2023-08-25T00:26:59.978Z,10.48
2023-08-25T00:29:38.751Z,10.49
2023-08-25T00:32:09.299Z,10.44
2023-08-25T00:34:39.415Z,10.46
2023-08-25T00:37:14.270Z,10.37
2023-08-25T00:39:44.111Z,10.32
2023-08-25T00:44:56.343Z,10.20
2023-08-25T00:47:29.265Z,10.18
2023-08-25T00:50:10.283Z,10.11
2023-08-25T00:52:44.483Z,10.06
2023-08-25T00:55:19.666Z,10.11
2023-08-25T00:57:51.509Z,10.22
2023-08-25T01:00:30.959Z,10.24
2023-08-25T01:03:09.409Z,10.26
2023-08-25T01:05:41.355Z,10.27
2023-08-25T01:08:27.619Z,10.20
2023-08-25T01:11:15.145Z,10.17
2023-08-25T01:13:53.682Z,10.17
2023-08-25T01:16:38.439Z,10.19
2023-08-25T01:19:33.197Z,10.22
2023-08-25T01:22:13.148Z,10.13
2023-08-25T01:24:50.038Z,10.15
2023-08-25T01:27:25.810Z,10.18
2023-08-25T01:29:56.846Z,10.16
2023-08-25T01:32:28.492Z,10.04
2023-08-25T01:35:02.904Z,10.08
2023-08-25T01:37:45.922Z,9.92
2023-08-25T01:40:22.815Z,9.89
2023-08-25T01:42:58.649Z,9.86
2023-08-25T01:45:29.457Z,9.88
2023-08-25T01:48:09.092Z,9.93
2023-08-25T01:50:40.047Z,9.99
2023-08-25T01:53:15.093Z,9.69
2023-08-25T01:55:45.248Z,9.95
2023-08-25T01:58:24.752Z,9.94
2023-08-25T02:00:55.411Z,9.97
2023-08-25T02:03:26.385Z,10.01
2023-08-25T02:05:57.394Z,10.00
2023-08-25T02:08:32.763Z,9.88
2023-08-25T02:11:08.482Z,9.94
2023-08-25T02:13:45.083Z,9.86
2023-08-25T02:16:14.949Z,9.88
2023-08-25T02:18:44.546Z,9.90
2023-08-25T02:21:24.745Z,9.98
2023-08-25T02:23:57.698Z,10.02
2023-08-25T02:26:28.044Z,10.05
2023-08-25T02:28:59.346Z,10.02
2023-08-25T02:31:38.218Z,10.03
2023-08-25T02:34:07.839Z,10.08
2023-08-25T02:36:38.186Z,10.19
2023-08-25T02:39:08.679Z,10.21
2023-08-25T02:41:42.561Z,10.21
2023-08-25T02:44:19.425Z,10.26
2023-08-25T02:46:48.992Z,10.35
2023-08-25T02:51:57.666Z,10.44
2023-08-25T02:54:28.840Z,10.51
2023-08-25T02:57:02.017Z,10.49
2023-08-25T02:59:33.403Z,10.56
2023-08-25T03:02:02.921Z,10.61
2023-08-25T03:04:32.682Z,10.63
2023-08-25T03:07:14.724Z,10.68
2023-08-25T03:09:46.055Z,10.73
2023-08-25T03:12:16.278Z,10.80
2023-08-25T03:14:47.842Z,10.87
2023-08-25T03:17:23.368Z,10.93
2023-08-25T03:19:58.420Z,10.97
2023-08-25T03:22:31.559Z,10.99
2023-08-25T03:25:09.217Z,10.99
2023-08-25T03:27:44.197Z,10.96
2023-08-25T03:30:18.399Z,10.96
2023-08-25T03:32:49.558Z,11.00
2023-08-25T03:35:19.358Z,11.09
2023-08-25T03:37:49.187Z,11.18
2023-08-25T03:40:28.211Z,11.26
2023-08-25T03:43:00.837Z,11.41
2023-08-25T03:45:38.066Z,11.46
2023-08-25T03:48:08.651Z,11.50
2023-08-25T03:50:38.259Z,11.59
2023-08-25T03:53:09.136Z,11.63
2023-08-25T03:55:43.089Z,11.64
2023-08-25T03:58:15.271Z,11.63
2023-08-25T04:00:54.918Z,11.70
2023-08-25T04:03:25.233Z,11.71
2023-08-25T04:05:54.774Z,11.74
2023-08-25T04:08:26.448Z,11.83
2023-08-25T04:10:58.059Z,11.99
2023-08-25T04:13:39.211Z,12.31
2023-08-25T04:16:10.940Z,12.63
2023-08-25T04:18:42.193Z,12.78
2023-08-25T04:21:15.401Z,12.92
2023-08-25T04:23:56.369Z,13.05
2023-08-25T04:26:26.125Z,13.11
2023-08-25T04:28:58.430Z,13.20
2023-08-25T04:31:29.958Z,13.15
2023-08-25T04:34:06.811Z,13.19
2023-08-25T04:36:40.544Z,13.33
2023-08-25T04:39:14.358Z,13.44
2023-08-25T04:41:45.267Z,13.39
2023-08-25T04:44:21.275Z,13.52
2023-08-25T04:46:53.519Z,13.58
2023-08-25T04:49:25.315Z,13.64
2023-08-25T04:51:58.870Z,13.71
2023-08-25T04:54:39.548Z,13.73
2023-08-25T04:57:10.273Z,13.79
2023-08-25T04:59:43.069Z,13.86
2023-08-25T05:02:15.043Z,13.83
2023-08-25T05:04:52.441Z,13.80
2023-08-25T05:07:22.494Z,13.94
2023-08-25T05:09:52.538Z,14.05
2023-08-25T05:12:21.963Z,14.03
2023-08-25T05:14:57.588Z,13.85
2023-08-25T05:17:30.079Z,13.96
2023-08-25T05:20:00.022Z,13.90
2023-08-25T05:22:39.730Z,13.81
2023-08-25T05:25:15.174Z,13.66
2023-08-25T05:27:50.816Z,13.69
2023-08-25T05:30:24.672Z,13.75
2023-08-25T05:33:05.411Z,13.74
2023-08-25T05:35:43.436Z,13.78
2023-08-25T05:38:15.898Z,13.73
2023-08-25T05:41:02.640Z,13.80
2023-08-25T05:43:33.668Z,13.87
2023-08-25T05:46:05.139Z,13.96
2023-08-25T05:48:40.203Z,14.09
2023-08-25T05:51:22.097Z,14.21
2023-08-25T05:53:53.978Z,14.26
2023-08-25T05:56:26.584Z,14.39
2023-08-25T05:59:06.291Z,14.47
2023-08-25T06:01:36.873Z,14.48
2023-08-25T06:04:09.717Z,14.59
2023-08-25T06:06:40.302Z,14.58
2023-08-25T06:09:10.010Z,14.71
2023-08-25T06:11:39.523Z,14.75
2023-08-25T06:14:11.854Z,14.88
2023-08-25T06:16:45.484Z,14.91
2023-08-25T06:19:17.848Z,14.88
2023-08-25T06:21:47.535Z,14.85
2023-08-25T06:24:18.125Z,14.89
2023-08-25T06:26:59.531Z,14.95
2023-08-25T06:29:29.089Z,15.10
2023-08-25T06:34:40.598Z,15.19
2023-08-25T06:37:10.144Z,15.26
2023-08-25T06:39:52.522Z,15.33
2023-08-25T06:42:22.830Z,15.42
2023-08-25T06:44:53.340Z,15.48
2023-08-25T06:47:25.231Z,15.52
2023-08-25T06:49:58.700Z,15.55
2023-08-25T06:52:33.826Z,15.51
2023-08-25T06:55:04.198Z,15.52
2023-08-25T06:57:37.807Z,15.41
2023-08-25T07:00:15.416Z,15.53
2023-08-25T07:02:47.707Z,15.55
2023-08-25T07:08:13.554Z,15.65
2023-08-25T07:10:57.315Z,15.66
2023-08-25T07:13:27.510Z,15.64
2023-08-25T07:18:37.496Z,15.67
2023-08-25T07:21:16.677Z,15.95
2023-08-25T07:23:46.685Z,15.99
2023-08-25T07:26:27.735Z,15.86
2023-08-25T07:28:57.368Z,15.94
2023-08-25T07:34:01.808Z,16.00
2023-08-25T07:36:35.011Z,16.06
2023-08-25T07:41:46.172Z,16.34
2023-08-25T07:44:16.845Z,16.43
2023-08-25T07:46:55.051Z,16.30
2023-08-25T07:49:25.786Z,16.20
2023-08-25T07:52:02.071Z,16.39
2023-08-25T07:54:45.930Z,16.58
2023-08-25T07:57:15.439Z,16.71
2023-08-25T07:59:46.793Z,16.72
2023-08-25T08:02:22.394Z,16.66
2023-08-25T08:04:53.760Z,16.62
2023-08-25T08:07:27.539Z,16.78
2023-08-25T08:09:56.842Z,17.04
2023-08-25T08:12:26.597Z,17.23
2023-08-25T08:15:01.579Z,17.27
2023-08-25T08:17:35.231Z,17.42
2023-08-25T08:22:52.052Z,17.85
2023-08-25T08:25:23.131Z,18.04
2023-08-25T08:28:00.306Z,18.19
2023-08-25T08:30:30.054Z,18.21
2023-08-25T08:32:59.634Z,18.14
2023-08-25T08:35:35.500Z,17.91
2023-08-25T08:38:09.598Z,17.95
2023-08-25T08:40:39.895Z,17.97
2023-08-25T08:43:15.917Z,17.97
2023-08-25T08:48:35.124Z,17.88
2023-08-25T08:53:55.865Z,17.62
2023-08-25T08:56:26.707Z,17.67
2023-08-25T08:59:01.273Z,17.50
2023-08-25T09:01:44.678Z,17.62
2023-08-25T09:04:22.970Z,17.86
2023-08-25T09:07:05.402Z,18.16
2023-08-25T09:09:50.580Z,18.29
2023-08-25T09:12:24.700Z,18.34
2023-08-25T09:15:00.427Z,18.17
2023-08-25T09:17:57.110Z,17.92
2023-08-25T09:20:45.222Z,18.24
2023-08-25T09:23:32.597Z,18.86
2023-08-25T09:26:22.084Z,19.17
2023-08-25T09:29:00.688Z,18.98
2023-08-25T09:31:39.095Z,18.72
2023-08-25T09:34:22.737Z,18.63
2023-08-25T09:37:04.101Z,18.59
2023-08-25T09:39:51.535Z,18.58
2023-08-25T09:42:32.721Z,18.62
2023-08-25T09:45:30.540Z,18.69
2023-08-25T09:48:13.745Z,18.61
2023-08-25T09:50:45.914Z,18.54
2023-08-25T09:53:16.448Z,18.90
2023-08-25T09:58:32.911Z,19.14
2023-08-25T10:01:09.001Z,18.86
2023-08-25T10:03:47.151Z,18.80
2023-08-25T10:06:29.759Z,18.68
2023-08-25T10:09:00.254Z,18.52
2023-08-25T10:11:41.965Z,18.67
2023-08-25T10:14:16.378Z,18.80
2023-08-25T10:16:59.877Z,18.58
2023-08-25T10:19:36.379Z,18.07
2023-08-25T10:22:13.228Z,17.77
2023-08-25T10:24:46.640Z,17.66
2023-08-25T10:30:04.710Z,17.99
2023-08-25T10:33:14.197Z,18.30
2023-08-25T10:35:47.950Z,18.46
2023-08-25T10:38:41.717Z,18.60
2023-08-25T10:41:19.091Z,18.72
2023-08-25T10:44:00.728Z,18.54
2023-08-25T10:46:49.256Z,18.50
2023-08-25T10:52:23.683Z,18.74
2023-08-25T10:54:58.178Z,18.94
2023-08-25T10:57:45.479Z,19.36
2023-08-25T11:00:49.079Z,19.97
2023-08-25T11:04:18.255Z,20.72
2023-08-25T11:06:52.328Z,20.93
2023-08-25T11:09:37.968Z,21.06
2023-08-25T11:12:11.582Z,21.38
2023-08-25T11:14:47.464Z,21.62
2023-08-25T11:17:22.521Z,21.76
2023-08-25T11:19:58.517Z,21.94
2023-08-25T11:22:58.396Z,21.99
2023-08-25T11:25:41.162Z,21.94
2023-08-25T11:28:21.121Z,21.56
2023-08-25T11:30:56.945Z,20.68
2023-08-25T11:33:31.606Z,20.18
2023-08-25T11:36:09.443Z,19.66
2023-08-25T11:39:02.081Z,19.45
2023-08-25T11:41:33.778Z,19.28
2023-08-25T11:46:44.103Z,19.07
2023-08-25T11:49:24.125Z,18.88
2023-08-25T11:51:59.587Z,18.82
2023-08-25T11:57:12.720Z,18.15
2023-08-25T11:59:43.964Z,18.11
2023-08-25T12:02:23.954Z,18.13
2023-08-25T12:05:00.582Z,18.15
2023-08-25T12:07:34.621Z,18.12
2023-08-25T12:10:08.663Z,18.09
2023-08-25T12:12:40.467Z,18.09
2023-08-25T12:15:13.291Z,17.98
2023-08-25T12:17:48.084Z,18.05
2023-08-25T12:20:23.218Z,18.21
2023-08-25T12:23:01.480Z,18.38
2023-08-25T12:25:38.576Z,18.25
2023-08-25T12:28:09.906Z,18.21
2023-08-25T12:30:40.394Z,18.24
2023-08-25T12:33:17.933Z,18.16
2023-08-25T12:35:47.784Z,18.09
2023-08-25T12:38:25.028Z,18.20
2023-08-25T12:40:58.931Z,18.46
2023-08-25T12:49:50.365Z,18.08
2023-08-25T12:52:20.138Z,18.10
2023-08-25T12:54:53.151Z,18.12
2023-08-25T12:57:26.911Z,18.20
2023-08-25T13:00:01.166Z,18.16
2023-08-25T13:02:33.610Z,18.31
2023-08-25T13:05:05.801Z,18.37
2023-08-25T13:07:35.376Z,18.28
2023-08-25T13:10:07.144Z,18.34
2023-08-25T13:12:37.311Z,18.14
2023-08-25T13:15:09.036Z,18.15
2023-08-25T13:17:41.000Z,18.30
2023-08-25T13:20:19.362Z,18.30
2023-08-25T13:22:49.540Z,18.36
2023-08-25T13:25:20.185Z,18.37
2023-08-25T13:27:50.551Z,18.36
2023-08-25T13:30:29.555Z,18.38
2023-08-25T13:33:07.817Z,18.33
2023-08-25T13:35:41.412Z,18.50
2023-08-25T13:38:12.691Z,18.46
2023-08-25T13:40:42.247Z,18.47
2023-08-25T13:43:13.528Z,18.44
2023-08-25T13:45:44.154Z,18.51
2023-08-25T13:48:21.555Z,18.52
2023-08-25T13:50:58.701Z,18.49
2023-08-25T13:53:28.424Z,18.46
2023-08-25T13:58:41.127Z,18.50
2023-08-25T14:01:12.088Z,18.49
2023-08-25T14:03:42.229Z,18.55
2023-08-25T14:06:13.868Z,18.60
2023-08-25T14:08:55.035Z,18.61
2023-08-25T14:11:25.172Z,18.63
2023-08-25T14:14:02.147Z,18.70
2023-08-25T14:16:34.317Z,18.82
2023-08-25T14:19:07.885Z,18.94
2023-08-25T14:21:43.204Z,19.03
2023-08-25T14:24:13.323Z,19.12
2023-08-25T14:26:47.876Z,19.15
2023-08-25T14:29:22.659Z,19.26
2023-08-25T14:31:55.252Z,19.38
2023-08-25T14:34:31.003Z,19.47
2023-08-25T14:37:05.281Z,19.64
2023-08-25T14:39:43.009Z,19.74
2023-08-25T14:42:13.108Z,19.72
2023-08-25T14:44:44.438Z,19.55
2023-08-25T14:47:15.168Z,19.37
2023-08-25T14:49:56.920Z,19.07
2023-08-25T14:52:28.999Z,18.87
2023-08-25T14:54:58.978Z,18.54
2023-08-25T14:57:28.902Z,18.27
2023-08-25T15:00:06.537Z,18.09
2023-08-25T15:02:37.165Z,17.97
2023-08-25T15:05:12.668Z,18.03
2023-08-25T15:07:45.138Z,18.06
2023-08-25T15:10:21.149Z,17.97
2023-08-25T15:12:50.592Z,18.16
2023-08-25T15:15:20.234Z,18.17
2023-08-25T15:20:25.087Z,18.14
2023-08-25T15:22:58.944Z,18.12
2023-08-25T15:28:10.226Z,18.20
2023-08-25T15:30:46.353Z,18.22
2023-08-25T15:33:16.198Z,18.24
2023-08-25T15:35:56.367Z,18.22
2023-08-25T15:38:29.217Z,18.27
2023-08-25T15:41:00.199Z,18.27
2023-08-25T15:43:32.019Z,18.29
2023-08-25T15:46:01.567Z,18.27
2023-08-25T15:48:31.814Z,18.24
2023-08-25T15:53:43.382Z,18.08
2023-08-25T15:56:12.753Z,18.02
2023-08-25T15:58:47.584Z,17.95
2023-08-25T16:01:23.278Z,17.86
2023-08-25T16:03:56.307Z,17.77
2023-08-25T16:06:31.380Z,17.60
2023-08-25T16:09:14.585Z,17.38
2023-08-25T16:11:44.151Z,17.15
2023-08-25T16:14:20.590Z,17.10
2023-08-25T16:16:50.566Z,17.02
2023-08-25T16:19:26.143Z,16.93
2023-08-25T16:21:58.009Z,16.83
2023-08-25T16:24:30.869Z,16.66
2023-08-25T16:27:01.418Z,16.54
2023-08-25T16:29:30.843Z,16.53
2023-08-25T16:32:00.320Z,16.42
2023-08-25T16:34:30.876Z,16.35
2023-08-25T16:37:01.438Z,16.27
2023-08-25T16:39:39.640Z,16.12
2023-08-25T16:42:10.001Z,15.81
2023-08-25T16:44:39.438Z,15.78
2023-08-25T16:47:12.475Z,15.69
2023-08-25T16:49:44.348Z,15.58
2023-08-25T16:52:24.302Z,15.45
2023-08-25T16:54:56.034Z,15.35
2023-08-25T16:57:27.802Z,15.31
2023-08-25T17:00:06.502Z,15.37
2023-08-25T17:02:49.817Z,15.42
2023-08-25T17:05:23.608Z,15.60
2023-08-25T17:07:54.623Z,15.67
2023-08-25T17:10:26.946Z,15.78
2023-08-25T17:13:01.932Z,15.72
2023-08-25T17:15:37.778Z,15.66
2023-08-25T17:18:18.969Z,15.60
2023-08-25T17:20:48.961Z,15.51
2023-08-25T17:23:18.848Z,15.35
2023-08-25T17:25:56.178Z,15.28
2023-08-25T17:28:28.161Z,15.18
2023-08-25T17:31:14.301Z,15.15
2023-08-25T17:33:44.404Z,14.96
2023-08-25T17:36:15.690Z,14.99
2023-08-25T17:38:46.692Z,14.98
2023-08-25T17:41:26.691Z,14.89
2023-08-25T17:44:00.570Z,14.85
2023-08-25T17:49:10.608Z,14.78
2023-08-25T17:51:47.556Z,14.73
2023-08-25T17:54:26.353Z,14.69
2023-08-25T17:56:58.782Z,14.63
2023-08-25T17:59:28.699Z,14.60
2023-08-25T18:01:59.644Z,14.59
2023-08-25T18:04:36.409Z,14.57
2023-08-25T18:07:06.365Z,14.53
2023-08-25T18:09:36.056Z,14.46
2023-08-25T18:12:09.017Z,14.41
2023-08-25T18:14:42.419Z,14.36
2023-08-25T18:17:14.239Z,14.34
2023-08-25T18:19:43.641Z,14.32
2023-08-25T18:22:15.860Z,14.36
2023-08-25T18:24:46.603Z,14.41
2023-08-25T18:27:26.694Z,14.26
2023-08-25T18:29:56.882Z,14.16
2023-08-25T18:32:36.594Z,14.13
2023-08-25T18:35:12.288Z,14.19
2023-08-25T18:37:43.299Z,14.14
2023-08-25T18:40:14.792Z,14.20
2023-08-25T18:42:47.319Z,14.23
2023-08-25T18:45:17.063Z,14.26
2023-08-25T18:47:48.347Z,14.27
2023-08-25T18:50:18.400Z,14.19
2023-08-25T18:52:48.034Z,14.25
2023-08-25T18:55:19.517Z,14.30
2023-08-25T18:57:51.329Z,14.34
2023-08-25T19:00:22.455Z,14.43
2023-08-25T19:02:59.743Z,14.42
2023-08-25T19:05:37.645Z,14.43
2023-08-25T19:08:12.187Z,14.36
2023-08-25T19:10:46.897Z,14.21
2023-08-25T19:13:18.669Z,14.08
2023-08-25T19:16:00.065Z,13.93
2023-08-25T19:18:31.009Z,14.01
2023-08-25T19:21:02.946Z,13.89
2023-08-25T19:23:34.389Z,13.88
2023-08-25T19:26:10.769Z,13.83
2023-08-25T19:28:44.659Z,13.81
2023-08-25T19:31:17.626Z,13.81
2023-08-25T19:33:47.479Z,13.79
2023-08-25T19:36:19.661Z,13.79
2023-08-25T19:38:48.972Z,13.81
2023-08-25T19:41:20.419Z,13.71
2023-08-25T19:43:54.223Z,13.66
2023-08-25T19:46:24.038Z,13.56
2023-08-25T19:48:53.659Z,13.48
2023-08-25T19:51:23.193Z,13.42
2023-08-25T19:53:52.835Z,13.40
2023-08-25T19:56:28.746Z,13.38
2023-08-25T19:59:00.335Z,13.49
2023-08-25T20:01:30.962Z,13.47
2023-08-25T20:04:09.352Z,13.40
2023-08-25T20:06:40.646Z,13.33
2023-08-25T20:09:14.449Z,13.21
2023-08-25T20:11:45.454Z,13.11
2023-08-25T20:14:22.700Z,13.07
2023-08-25T20:16:53.561Z,13.02
2023-08-25T20:19:24.455Z,12.98
2023-08-25T20:21:58.844Z,12.91
2023-08-25T20:24:29.057Z,12.79
2023-08-25T20:27:00.970Z,12.84
2023-08-25T20:29:33.183Z,12.91
2023-08-25T20:32:06.911Z,12.74
2023-08-25T20:34:41.722Z,12.64
2023-08-25T20:37:11.752Z,12.60
2023-08-25T20:39:43.526Z,12.56
2023-08-25T20:42:12.704Z,12.65
2023-08-25T20:44:46.057Z,12.46
2023-08-25T20:47:17.018Z,12.33
2023-08-25T20:49:53.608Z,12.32
2023-08-25T20:52:23.231Z,12.38
2023-08-25T20:54:54.477Z,12.37
2023-08-25T20:57:24.342Z,12.30
2023-08-25T21:00:06.492Z,12.18
2023-08-25T21:02:37.225Z,12.10
2023-08-25T21:05:13.907Z,12.05
2023-08-25T21:07:43.741Z,12.16
2023-08-25T21:10:19.395Z,12.09
2023-08-25T21:12:51.684Z,12.09
2023-08-25T21:15:31.547Z,12.14
2023-08-25T21:18:07.529Z,12.17
2023-08-25T21:20:48.481Z,12.21
2023-08-25T21:23:19.468Z,12.16
2023-08-25T21:25:57.325Z,12.13
2023-08-25T21:28:29.166Z,12.10
2023-08-25T21:31:06.682Z,12.07
2023-08-25T21:33:36.891Z,11.96
2023-08-25T21:36:17.348Z,11.91
2023-08-25T21:38:47.480Z,11.82
2023-08-25T21:41:19.376Z,11.77
2023-08-25T21:43:48.958Z,11.70
2023-08-25T21:46:28.309Z,11.66
2023-08-25T21:49:00.286Z,11.62
2023-08-25T21:51:29.264Z,11.71
2023-08-25T21:53:58.672Z,11.66
2023-08-25T21:56:34.923Z,11.71
2023-08-25T21:59:05.625Z,11.67
2023-08-25T22:01:42.484Z,11.64
2023-08-25T22:04:14.850Z,11.61
2023-08-25T22:06:47.100Z,11.63
2023-08-25T22:09:17.319Z,11.60
2023-08-25T22:11:51.002Z,11.56
2023-08-25T22:14:22.897Z,11.53
2023-08-25T22:16:57.297Z,11.47
2023-08-25T22:19:27.708Z,11.44
2023-08-25T22:21:57.559Z,11.43
2023-08-25T22:24:28.459Z,11.38
2023-08-25T22:27:05.333Z,11.35
2023-08-25T22:29:34.803Z,11.28
2023-08-25T22:32:07.639Z,11.27
2023-08-25T22:34:39.105Z,11.26
2023-08-25T22:37:10.032Z,11.23
2023-08-25T22:39:40.272Z,11.21
2023-08-25T22:42:10.142Z,11.21
2023-08-25T22:44:41.737Z,11.21
2023-08-25T22:47:26.430Z,11.25
2023-08-25T22:49:58.642Z,11.26
2023-08-25T22:52:34.679Z,11.22
2023-08-25T22:55:05.138Z,11.15
2023-08-25T22:57:34.840Z,11.07
2023-08-25T23:00:09.476Z,11.09
2023-08-25T23:02:42.406Z,11.07
2023-08-25T23:05:12.883Z,11.03
2023-08-25T23:07:43.146Z,11.01
2023-08-25T23:10:14.763Z,11.02
2023-08-25T23:12:46.035Z,11.01
2023-08-25T23:15:23.018Z,11.01
2023-08-25T23:17:54.704Z,10.97
2023-08-25T23:20:24.728Z,10.95
2023-08-25T23:22:54.001Z,10.92
2023-08-25T23:25:36.866Z,10.86
2023-08-25T23:28:08.230Z,10.79
2023-08-25T23:30:45.390Z,10.79
2023-08-25T23:33:16.652Z,10.75
2023-08-25T23:35:46.531Z,10.82
2023-08-25T23:38:18.380Z,10.83
2023-08-25T23:41:03.292Z,10.92
2023-08-25T23:43:33.551Z,10.98
2023-08-25T23:46:09.011Z,11.00
2023-08-25T23:48:40.479Z,10.98
2023-08-25T23:51:16.333Z,10.90
2023-08-25T23:53:49.928Z,10.84
2023-08-25T23:56:31.151Z,10.79
2023-08-25T23:59:01.152Z,10.72
